Time;durP1;ratioP1;P1;durP2;ratioP2;P2;SDS_P1;SDS_P2;PMS_P1;PMS_P2;Temp;Humidity;BMP_temperature;BMP_pressure;BME280_temperature;BME280_humidity;BME280_pressure;Samples;Min_cycle;Max_cycle;Signal;HPM_P1;HPM_P2
2024/02/27 00:01:27;;;;;;;;;;;;;;;-146.32;100.00;63746.28;4170774;28;20023;-68
2024/02/27 00:03:29;;;;;;;;;;;;;;;-146.32;100.00;63746.28;4170537;28;20003;-68
2024/02/27 00:05:31;;;;;;;;;;;;;;;-146.32;100.00;63746.28;4171138;28;20019;-68
2024/02/27 00:07:32;;;;;;;;;;;;;;;-146.32;100.00;63746.28;4170838;28;20035;-68
2024/02/27 00:09:35;;;;;;;;;;;;;;;-146.32;100.00;63746.28;4170259;28;20087;-68
2024/02/27 00:11:37;;;;;;;;;;;;;;;-146.32;100.00;63746.28;4169764;28;20019;-68
2024/02/27 00:13:39;;;;;;;;;;;;;;;-146.32;100.00;63746.28;4170327;28;20360;-68
2024/02/27 00:15:41;;;;;;;;;;;;;;;-146.32;100.00;63746.28;4137115;28;20024;-68
2024/02/27 00:17:43;;;;;;;;;;;;;;;-146.32;100.00;63746.28;4171107;28;20024;-68
2024/02/27 00:19:44;;;;;;;;;;;;;;;-146.32;100.00;63746.28;4170094;28;20366;-68
2024/02/27 00:21:46;;;;;;;;;;;;;;;-146.32;100.00;63746.28;4169456;28;20019;-68
2024/02/27 00:23:48;;;;;;;;;;;;;;;-146.32;100.00;63746.28;4170426;28;20031;-68
2024/02/27 00:25:51;;;;;;;;;;;;;;;-146.32;100.00;63746.28;4170007;28;20024;-68
2024/02/27 00:27:53;;;;;;;;;;;;;;;-146.32;100.00;63746.28;4171174;28;20016;-68
2024/02/27 00:29:55;;;;;;;;;;;;;;;-146.32;100.00;63746.28;4151974;28;20007;-68
2024/02/27 00:31:57;;;;;;;;;;;;;;;-146.32;100.00;63746.28;4169876;28;20011;-68
2024/02/27 00:33:59;;;;;;;;;;;;;;;-146.32;100.00;63746.28;4169983;28;20112;-68
2024/02/27 00:36:02;;;;;;;;;;;;;;;-146.32;100.00;63746.28;4152252;28;20012;-68
2024/02/27 00:38:04;;;;;;;;;;;;;;;-146.32;100.00;63746.28;4170723;28;20003;-68
2024/02/27 00:40:08;;;;;;;;;;;;;;;-146.32;100.00;63746.28;4169366;28;20012;-68
2024/02/27 00:42:11;;;;;;;;;;;;;;;-146.32;100.00;63746.28;4169787;28;20019;-68
2024/02/27 00:44:13;;;;;;;;;;;;;;;-146.32;100.00;63746.28;4170282;28;20019;-68
2024/02/27 00:46:15;;;;;;;;;;;;;;;-146.32;100.00;63746.28;4169480;28;20011;-68
2024/02/27 00:48:17;;;;;;;;;;;;;;;-146.32;100.00;63746.28;4168611;28;20108;-68
2024/02/27 00:50:19;;;;;;;;;;;;;;;-146.32;100.00;63746.28;4169999;28;20047;-68
2024/02/27 00:52:21;;;;;;;;;;;;;;;-146.32;100.00;63746.28;4170199;28;20047;-68
2024/02/27 00:54:24;;;;;;;;;;;;;;;-146.32;100.00;63746.28;4169655;28;19971;-69
2024/02/27 00:56:26;;;;;;;;;;;;;;;-146.32;100.00;63746.28;4169182;28;20020;-68
2024/02/27 00:58:29;;;;;;;;;;;;;;;-146.32;100.00;63746.28;4169311;28;20422;-68
2024/02/27 01:00:31;;;;;;;;;;;;;;;-146.32;100.00;63746.28;4169134;28;20015;-68
2024/02/27 01:02:33;;;;;;;;;;;;;;;-146.32;100.00;63746.28;4168634;28;20400;-68
2024/02/27 01:04:34;;;;;;;;;;;;;;;-146.32;100.00;63746.28;4170026;28;20023;-68
2024/02/27 01:06:36;;;;;;;;;;;;;;;-146.32;100.00;63746.28;4170029;28;19925;-68
2024/02/27 01:08:38;;;;;;;;;;;;;;;-146.32;100.00;63746.28;4170543;28;20016;-68
2024/02/27 01:10:40;;;;;;;;;;;;;;;-146.32;100.00;63746.28;4166628;28;20008;-68
2024/02/27 01:12:42;;;;;;;;;;;;;;;-146.32;100.00;63746.28;4168732;28;20557;-68
2024/02/27 01:14:45;;;;;;;;;;;;;;;-146.32;100.00;63746.28;4169797;28;20086;-68
2024/02/27 01:16:47;;;;;;;;;;;;;;;-146.32;100.00;63746.28;4169878;28;20047;-68
2024/02/27 01:18:49;;;;;;;;;;;;;;;-146.32;100.00;63746.28;4169591;28;20016;-68
2024/02/27 01:20:51;;;;;;;;;;;;;;;-146.32;100.00;63746.28;4168931;28;20366;-68
2024/02/27 01:22:53;;;;;;;;;;;;;;;-146.32;100.00;63746.28;4169133;28;20446;-68
2024/02/27 01:24:55;;;;;;;;;;;;;;;-146.32;100.00;63746.28;4169494;28;20015;-68
2024/02/27 01:26:57;;;;;;;;;;;;;;;-146.32;100.00;63746.28;4169090;28;20003;-68
2024/02/27 01:28:58;;;;;;;;;;;;;;;-146.32;100.00;63746.28;4169413;28;20055;-68
2024/02/27 01:31:01;;;;;;;;;;;;;;;-146.32;100.00;63746.28;4169426;28;19924;-68
2024/02/27 01:33:03;;;;;;;;;;;;;;;-146.32;100.00;63746.28;4167954;28;20055;-68
2024/02/27 01:35:06;;;;;;;;;;;;;;;-146.32;100.00;63746.28;4169678;28;20023;-68
2024/02/27 01:37:08;;;;;;;;;;;;;;;-146.32;100.00;63746.28;4170192;28;20019;-68
2024/02/27 01:39:10;;;;;;;;;;;;;;;-146.32;100.00;63746.28;4167519;28;20582;-68
2024/02/27 01:41:12;;;;;;;;;;;;;;;-146.32;100.00;63746.28;4168902;28;20008;-68
2024/02/27 01:43:17;;;;;;;;;;;;;;;-146.32;100.00;63746.28;4169224;28;20032;-68
2024/02/27 01:45:21;;;;;;;;;;;;;;;-146.32;100.00;63746.28;4151852;28;20039;-68
2024/02/27 01:47:25;;;;;;;;;;;;;;;-146.32;100.00;63746.28;4169480;28;20514;-68
2024/02/27 01:49:27;;;;;;;;;;;;;;;-146.32;100.00;63746.28;4168232;28;20370;-68
2024/02/27 01:51:29;;;;;;;;;;;;;;;-146.32;100.00;63746.28;4168921;28;20067;-68
2024/02/27 01:53:31;;;;;;;;;;;;;;;-146.32;100.00;63746.28;4169299;28;20008;-68
2024/02/27 01:55:31;;;;;;;;;;;;;;;-146.32;100.00;63746.28;4169236;28;20008;-68
2024/02/27 01:57:33;;;;;;;;;;;;;;;-146.32;100.00;63746.28;4169667;28;20349;-68
2024/02/27 01:59:34;;;;;;;;;;;;;;;-146.32;100.00;63746.28;4168645;28;20159;-68
2024/02/27 02:01:38;;;;;;;;;;;;;;;-146.32;100.00;63746.28;4169235;28;20299;-68
2024/02/27 02:03:42;;;;;;;;;;;;;;;-146.32;100.00;63746.28;4169771;28;20023;-68
2024/02/27 02:05:44;;;;;;;;;;;;;;;-146.32;100.00;63746.28;4169137;28;20016;-68
2024/02/27 02:07:45;;;;;;;;;;;;;;;-146.32;100.00;63746.28;4168856;28;20032;-68
2024/02/27 02:09:47;;;;;;;;;;;;;;;-146.32;100.00;63746.28;4169375;28;19940;-68
2024/02/27 02:11:49;;;;;;;;;;;;;;;-146.32;100.00;63746.28;4168103;28;20016;-68
2024/02/27 02:13:50;;;;;;;;;;;;;;;-146.32;100.00;63746.28;4170612;28;20028;-68
2024/02/27 02:15:52;;;;;;;;;;;;;;;-146.32;100.00;63746.28;4171737;28;20017;-68
2024/02/27 02:17:54;;;;;;;;;;;;;;;-146.32;100.00;63746.28;4171269;28;20421;-68
2024/02/27 02:19:58;;;;;;;;;;;;;;;-146.32;100.00;63746.28;4171994;28;20023;-68
2024/02/27 02:22:01;;;;;;;;;;;;;;;-146.32;100.00;63746.28;4172469;28;20449;-68
2024/02/27 02:24:03;;;;;;;;;;;;;;;-146.32;100.00;63746.28;4173154;28;20048;-68
2024/02/27 02:26:04;;;;;;;;;;;;;;;-146.32;100.00;63746.28;4172845;28;20047;-68
2024/02/27 02:28:06;;;;;;;;;;;;;;;-146.32;100.00;63746.28;4172207;28;20012;-68
2024/02/27 02:30:11;;;;;;;;;;;;;;;-146.32;100.00;63746.28;4172708;28;19933;-68
2024/02/27 02:32:13;;;;;;;;;;;;;;;-146.32;100.00;63746.28;4172498;28;20023;-68
2024/02/27 02:34:15;;;;;;;;;;;;;;;-146.32;100.00;63746.28;4171953;28;20395;-68
2024/02/27 02:36:16;;;;;;;;;;;;;;;-146.32;100.00;63746.28;4172192;28;20031;-68
2024/02/27 02:38:19;;;;;;;;;;;;;;;-146.32;100.00;63746.28;4172693;28;19959;-68
2024/02/27 02:40:21;;;;;;;;;;;;;;;-146.32;100.00;63746.28;4171430;28;20028;-68
2024/02/27 02:42:23;;;;;;;;;;;;;;;-146.32;100.00;63746.28;4170783;28;20019;-68
2024/02/27 02:44:25;;;;;;;;;;;;;;;-146.32;100.00;63746.28;4170881;28;20023;-68
2024/02/27 02:46:27;;;;;;;;;;;;;;;-146.32;100.00;63746.28;4172470;28;20012;-68
2024/02/27 02:48:29;;;;;;;;;;;;;;;-146.32;100.00;63746.28;4169567;28;20047;-68
2024/02/27 02:50:31;;;;;;;;;;;;;;;-146.32;100.00;63746.28;4170655;28;20047;-68
2024/02/27 02:52:33;;;;;;;;;;;;;;;-146.32;100.00;63746.28;4171707;28;20369;-68
2024/02/27 02:54:36;;;;;;;;;;;;;;;-146.32;100.00;63746.28;4171977;28;20016;-68
2024/02/27 02:56:38;;;;;;;;;;;;;;;-146.32;100.00;63746.28;4170784;28;20040;-68
2024/02/27 02:58:40;;;;;;;;;;;;;;;-146.32;100.00;63746.28;4171663;28;20015;-68
2024/02/27 03:00:42;;;;;;;;;;;;;;;-146.32;100.00;63746.28;4172028;28;20027;-68
2024/02/27 03:02:43;;;;;;;;;;;;;;;-146.32;100.00;63746.28;4170397;28;20442;-68
2024/02/27 03:04:45;;;;;;;;;;;;;;;-146.32;100.00;63746.28;4171225;28;19991;-68
2024/02/27 03:06:47;;;;;;;;;;;;;;;-146.32;100.00;63746.28;4171537;28;20368;-68
2024/02/27 03:08:49;;;;;;;;;;;;;;;-146.32;100.00;63746.28;4169653;28;20374;-68
2024/02/27 03:10:51;;;;;;;;;;;;;;;-146.32;100.00;63746.28;4170260;28;20016;-68
2024/02/27 03:12:53;;;;;;;;;;;;;;;-146.32;100.00;63746.28;4170306;28;20015;-68
2024/02/27 03:14:55;;;;;;;;;;;;;;;-146.32;100.00;63746.28;4171358;28;20048;-68
2024/02/27 03:16:57;;;;;;;;;;;;;;;-146.32;100.00;63746.28;4171611;28;20012;-68
2024/02/27 03:18:58;;;;;;;;;;;;;;;-146.32;100.00;63746.28;4171284;28;20019;-68
2024/02/27 03:21:00;;;;;;;;;;;;;;;-146.32;100.00;63746.28;4171506;28;20414;-68
2024/02/27 03:23:02;;;;;;;;;;;;;;;-146.32;100.00;63746.28;4171480;28;20011;-68
2024/02/27 03:25:05;;;;;;;;;;;;;;;-146.32;100.00;63746.28;4170045;28;20031;-68
2024/02/27 03:27:09;;;;;;;;;;;;;;;-146.32;100.00;63746.28;4171195;28;20020;-68
2024/02/27 03:29:11;;;;;;;;;;;;;;;-146.32;100.00;63746.28;4170991;28;20023;-68
2024/02/27 03:31:13;;;;;;;;;;;;;;;-146.32;100.00;63746.28;4169261;28;20016;-68
2024/02/27 03:33:14;;;;;;;;;;;;;;;-146.32;100.00;63746.28;4170763;28;20029;-68
2024/02/27 03:35:16;;;;;;;;;;;;;;;-146.32;100.00;63746.28;4171208;28;20047;-68
2024/02/27 03:37:17;;;;;;;;;;;;;;;-146.32;100.00;63746.28;4170712;28;20028;-68
2024/02/27 03:39:19;;;;;;;;;;;;;;;-146.32;100.00;63746.28;4168233;28;20012;-68
2024/02/27 03:41:21;;;;;;;;;;;;;;;-146.32;100.00;63746.28;4169926;28;20051;-68
2024/02/27 03:43:25;;;;;;;;;;;;;;;-146.32;100.00;63746.28;4170610;28;20016;-68
2024/02/27 03:45:27;;;;;;;;;;;;;;;-146.32;100.00;63746.28;4171127;28;20027;-68
2024/02/27 03:47:29;;;;;;;;;;;;;;;-146.32;100.00;63746.28;4168989;28;20019;-68
2024/02/27 03:49:31;;;;;;;;;;;;;;;-146.32;100.00;63746.28;4169063;28;20015;-68
2024/02/27 03:51:32;;;;;;;;;;;;;;;-146.32;100.00;63746.28;4169948;28;20007;-68
2024/02/27 03:53:33;;;;;;;;;;;;;;;-146.32;100.00;63746.28;4170923;28;19983;-68
2024/02/27 03:55:36;;;;;;;;;;;;;;;-146.32;100.00;63746.28;4171377;28;20007;-68
2024/02/27 03:57:38;;;;;;;;;;;;;;;-146.32;100.00;63746.28;4171441;28;20015;-68
2024/02/27 03:59:41;;;;;;;;;;;;;;;-146.32;100.00;63746.28;4171386;28;20015;-68
2024/02/27 04:01:43;;;;;;;;;;;;;;;-146.32;100.00;63746.28;4169907;28;20019;-68
2024/02/27 04:03:45;;;;;;;;;;;;;;;-146.32;100.00;63746.28;4170607;28;20039;-68
2024/02/27 04:05:47;;;;;;;;;;;;;;;-146.32;100.00;63746.28;4170481;28;20004;-68
2024/02/27 04:07:49;;;;;;;;;;;;;;;-146.32;100.00;63746.28;4170548;28;20012;-68
2024/02/27 04:09:50;;;;;;;;;;;;;;;-146.32;100.00;63746.28;4168424;28;20028;-68
2024/02/27 04:11:52;;;;;;;;;;;;;;;-146.32;100.00;63746.28;4168697;28;19929;-68
2024/02/27 04:13:53;;;;;;;;;;;;;;;-146.32;100.00;63746.28;4171242;28;20048;-68
2024/02/27 04:15:57;;;;;;;;;;;;;;;-146.32;100.00;63746.28;4170536;28;19926;-68
2024/02/27 04:17:59;;;;;;;;;;;;;;;-146.32;100.00;63746.28;4170236;28;20023;-68
2024/02/27 04:20:01;;;;;;;;;;;;;;;-146.32;100.00;63746.28;4169826;28;20012;-68
2024/02/27 04:22:02;;;;;;;;;;;;;;;-146.32;100.00;63746.28;4170630;28;20015;-68
2024/02/27 04:24:04;;;;;;;;;;;;;;;-146.32;100.00;63746.28;4170651;28;20054;-68
2024/02/27 04:26:06;;;;;;;;;;;;;;;-146.32;100.00;63746.28;4171088;28;20020;-68
2024/02/27 04:28:07;;;;;;;;;;;;;;;-146.32;100.00;63746.28;4169822;28;20017;-68
2024/02/27 04:30:09;;;;;;;;;;;;;;;-146.32;100.00;63746.28;4168412;28;20361;-68
2024/02/27 04:32:13;;;;;;;;;;;;;;;-146.32;100.00;63746.28;4169385;28;20369;-67
2024/02/27 04:34:15;;;;;;;;;;;;;;;-146.32;100.00;63746.28;4138136;28;20455;-68
2024/02/27 04:36:17;;;;;;;;;;;;;;;-146.32;100.00;63746.28;4171103;28;20325;-68
2024/02/27 04:38:20;;;;;;;;;;;;;;;-146.32;100.00;63746.28;4170946;28;20019;-68
2024/02/27 04:40:22;;;;;;;;;;;;;;;-146.32;100.00;63746.28;4170849;28;20442;-68
2024/02/27 04:42:24;;;;;;;;;;;;;;;-146.32;100.00;63746.28;4171186;28;20023;-68
2024/02/27 04:44:26;;;;;;;;;;;;;;;-146.32;100.00;63746.28;4169599;28;20012;-68
2024/02/27 04:46:28;;;;;;;;;;;;;;;-146.32;100.00;63746.28;4170992;28;20460;-68
2024/02/27 04:48:30;;;;;;;;;;;;;;;-146.32;100.00;63746.28;4170868;28;20020;-68
2024/02/27 04:50:32;;;;;;;;;;;;;;;-146.32;100.00;63746.28;4170253;28;19955;-68
2024/02/27 04:52:34;;;;;;;;;;;;;;;-146.32;100.00;63746.28;4171226;28;20020;-68
2024/02/27 04:54:36;;;;;;;;;;;;;;;-146.32;100.00;63746.28;4170729;28;20450;-68
2024/02/27 04:56:41;;;;;;;;;;;;;;;-146.32;100.00;63746.28;4170913;28;20331;-68
2024/02/27 04:58:42;;;;;;;;;;;;;;;-146.32;100.00;63746.28;4170551;28;20024;-68
2024/02/27 05:00:45;;;;;;;;;;;;;;;-146.32;100.00;63746.28;4168147;28;20020;-68
2024/02/27 05:02:46;;;;;;;;;;;;;;;-146.32;100.00;63746.28;4168982;28;20424;-68
2024/02/27 05:04:49;;;;;;;;;;;;;;;-146.32;100.00;63746.28;4170054;28;20020;-68
2024/02/27 05:06:51;;;;;;;;;;;;;;;-146.32;100.00;63746.28;4168603;28;20016;-68
2024/02/27 05:08:53;;;;;;;;;;;;;;;-146.32;100.00;63746.28;4169898;28;20019;-68
2024/02/27 05:10:55;;;;;;;;;;;;;;;-146.32;100.00;63746.28;4170829;28;20375;-68
2024/02/27 05:12:57;;;;;;;;;;;;;;;-146.32;100.00;63746.28;4170758;28;20011;-68
2024/02/27 05:14:58;;;;;;;;;;;;;;;-146.32;100.00;63746.28;4169721;28;20015;-68
2024/02/27 05:17:00;;;;;;;;;;;;;;;-146.32;100.00;63746.28;4169947;28;20395;-68
2024/02/27 05:19:02;;;;;;;;;;;;;;;-146.32;100.00;63746.28;4167575;28;20008;-68
2024/02/27 05:21:06;;;;;;;;;;;;;;;-146.32;100.00;63746.28;4169885;28;20371;-68
2024/02/27 05:23:07;;;;;;;;;;;;;;;-146.32;100.00;63746.28;4168852;28;20043;-68
2024/02/27 05:25:10;;;;;;;;;;;;;;;-146.32;100.00;63746.28;4169657;28;20402;-68
2024/02/27 05:27:13;;;;;;;;;;;;;;;-146.32;100.00;63746.28;4169977;28;20008;-68
2024/02/27 05:29:14;;;;;;;;;;;;;;;-146.32;100.00;63746.28;4169714;28;20016;-68
2024/02/27 05:31:22;;;;;;;;;;;;;;;-146.32;100.00;63746.28;4153945;28;20024;-67
2024/02/27 05:33:24;;;;;;;;;;;;;;;-146.32;100.00;63746.28;4169113;28;20012;-68
2024/02/27 05:35:26;;;;;;;;;;;;;;;-146.32;100.00;63746.28;4169835;28;20028;-67
2024/02/27 05:37:30;;;;;;;;;;;;;;;-146.32;100.00;63746.28;4169200;28;20523;-68
2024/02/27 05:39:32;;;;;;;;;;;;;;;-146.32;100.00;63746.28;4169087;28;20048;-68
2024/02/27 05:41:34;;;;;;;;;;;;;;;-146.32;100.00;63746.28;4169322;28;20008;-69
2024/02/27 05:43:36;;;;;;;;;;;;;;;-146.32;100.00;63746.28;4169365;28;20446;-69
2024/02/27 05:45:38;;;;;;;;;;;;;;;-146.32;100.00;63746.28;4170554;28;20031;-69
2024/02/27 05:47:40;;;;;;;;;;;;;;;-146.32;100.00;63746.28;4172023;28;20365;-69
2024/02/27 05:49:42;;;;;;;;;;;;;;;-146.32;100.00;63746.28;4172517;28;20007;-69
2024/02/27 05:51:44;;;;;;;;;;;;;;;-146.32;100.00;63746.28;4173659;28;20020;-69
2024/02/27 05:53:47;;;;;;;;;;;;;;;-146.32;100.00;63746.28;4173804;28;20047;-69
2024/02/27 05:55:49;;;;;;;;;;;;;;;-146.32;100.00;63746.28;4155745;28;20478;-69
2024/02/27 05:57:51;;;;;;;;;;;;;;;-146.32;100.00;63746.28;4173285;28;20498;-69
2024/02/27 05:59:52;;;;;;;;;;;;;;;-146.32;100.00;63746.28;4173116;28;20032;-69
2024/02/27 06:01:54;;;;;;;;;;;;;;;-146.32;100.00;63746.28;4155945;28;19925;-69
2024/02/27 06:03:55;;;;;;;;;;;;;;;-146.32;100.00;63746.28;4172784;28;20019;-69
2024/02/27 06:05:58;;;;;;;;;;;;;;;-146.32;100.00;63746.28;4168452;28;20027;-69
2024/02/27 06:08:00;;;;;;;;;;;;;;;-146.32;100.00;63746.28;4171787;28;19956;-69
2024/02/27 06:10:03;;;;;;;;;;;;;;;-146.32;100.00;63746.28;4173660;28;20608;-68
2024/02/27 06:12:06;;;;;;;;;;;;;;;-146.32;100.00;63746.28;4171503;28;20011;-68
2024/02/27 06:14:08;;;;;;;;;;;;;;;-146.32;100.00;63746.28;4172488;28;20036;-69
2024/02/27 06:16:10;;;;;;;;;;;;;;;-146.32;100.00;63746.28;4171721;28;20364;-68
2024/02/27 06:18:13;;;;;;;;;;;;;;;-146.32;100.00;63746.28;4171666;28;20019;-68
2024/02/27 06:22:33;;;;;;;;;;;;;;;-146.32;100.00;63746.28;4172259;28;20019;-68
2024/02/27 06:24:35;;;;;;;;;;;;;;;-146.32;100.00;63746.28;4156979;28;20027;-68
2024/02/27 06:26:39;;;;;;;;;;;;;;;-146.32;100.00;63746.28;4172933;28;20016;-68
2024/02/27 06:28:40;;;;;;;;;;;;;;;-146.32;100.00;63746.28;4170318;28;20023;-67
2024/02/27 06:30:42;;;;;;;;;;;;;;;-146.32;100.00;63746.28;4168567;28;20023;-68
2024/02/27 06:32:44;;;;;;;;;;;;;;;-146.32;100.00;63746.28;4171132;28;20453;-67
2024/02/27 06:34:47;;;;;;;;;;;;;;;-146.32;100.00;63746.28;4170872;28;20012;-68
2024/02/27 06:36:51;;;;;;;;;;;;;;;-146.32;100.00;63746.28;4170773;28;20031;-68
2024/02/27 06:38:55;;;;;;;;;;;;;;;-146.32;100.00;63746.28;4172795;28;20355;-68
2024/02/27 06:40:57;;;;;;;;;;;;;;;-146.32;100.00;63746.28;4171865;28;20012;-67
2024/02/27 06:43:01;;;;;;;;;;;;;;;-146.32;100.00;63746.28;4172197;28;20024;-67
2024/02/27 06:45:03;;;;;;;;;;;;;;;-146.32;100.00;63746.28;4172554;28;20028;-68
2024/02/27 06:47:04;;;;;;;;;;;;;;;-146.32;100.00;63746.28;4173100;28;20122;-68
2024/02/27 06:49:06;;;;;;;;;;;;;;;-146.32;100.00;63746.28;4172787;28;20456;-67
2024/02/27 06:51:08;;;;;;;;;;;;;;;-146.32;100.00;63746.28;4172477;28;20027;-68
2024/02/27 06:53:09;;;;;;;;;;;;;;;-146.32;100.00;63746.28;4172916;28;20016;-68
2024/02/27 06:55:11;;;;;;;;;;;;;;;-146.32;100.00;63746.28;4171352;28;20314;-67
2024/02/27 06:57:13;;;;;;;;;;;;;;;-146.32;100.00;63746.28;4172425;28;20465;-67
2024/02/27 06:59:17;;;;;;;;;;;;;;;-146.32;100.00;63746.28;4171613;28;20442;-67
2024/02/27 07:01:19;;;;;;;;;;;;;;;-146.32;100.00;63746.28;4170313;28;20012;-67
2024/02/27 07:03:21;;;;;;;;;;;;;;;-146.32;100.00;63746.28;4171321;28;20385;-67
2024/02/27 07:05:26;;;;;;;;;;;;;;;-146.32;100.00;63746.28;4139789;28;20382;-67
2024/02/27 07:07:28;;;;;;;;;;;;;;;-146.32;100.00;63746.28;4172518;28;20023;-67
2024/02/27 07:09:30;;;;;;;;;;;;;;;-146.32;100.00;63746.28;4171955;28;20019;-67
2024/02/27 07:11:33;;;;;;;;;;;;;;;-146.32;100.00;63746.28;4169904;28;20012;-67
2024/02/27 07:13:35;;;;;;;;;;;;;;;-146.32;100.00;63746.28;4171098;28;20008;-72
2024/02/27 07:15:41;;;;;;;;;;;;;;;-146.32;100.00;63746.28;4172059;28;20024;-68
2024/02/27 07:17:43;;;;;;;;;;;;;;;-146.32;100.00;63746.28;4172498;28;20020;-67
2024/02/27 15:53:19;;;;;;;;;;;;;;;-146.32;100.00;63746.28;502305;26;21193;-88
2024/02/27 15:55:43;;;;;;;;;;;;;;;-146.32;100.00;63746.28;4158143;28;19936;-89
2024/02/27 15:58:07;;;;;;;;;;;;;;;-146.32;100.00;63746.28;4143932;28;19968;-88
2024/02/27 16:00:32;;;;;;;;;;;;;;;-146.32;100.00;63746.28;4156309;28;20039;-87
2024/02/27 16:02:56;;;;;;;;;;;;;;;-146.32;100.00;63746.28;4159444;28;19983;-88
2024/02/27 16:05:18;;;;;;;;;;;;;;;-146.32;100.00;63746.28;4158138;28;19964;-86
2024/02/27 16:07:40;;;;;;;;;;;;;;;-146.32;100.00;63746.28;4157416;28;20417;-86
2024/02/27 16:10:06;;;;;;;;;;;;;;;-146.32;100.00;63746.28;4147652;28;19931;-86
2024/02/27 16:12:28;;;;;;;;;;;;;;;-146.32;100.00;63746.28;4163673;28;20279;-86
2024/02/27 16:14:49;;;;;;;;;;;;;;;-146.32;100.00;63746.28;4171407;28;19994;-89
2024/02/27 16:17:10;;;;;;;;;;;;;;;-146.32;100.00;63746.28;4171506;28;19977;-88
2024/02/27 16:19:32;;;;;;;;;;;;;;;-146.32;100.00;63746.28;4157889;28;19971;-86
2024/02/27 16:21:53;;;;;;;;;;;;;;;-146.32;100.00;63746.28;4164393;28;20016;-84
2024/02/27 16:24:55;;;;;;;;;;;;;;;-146.32;100.00;63746.28;4164265;28;19932;-86
2024/02/27 16:27:20;;;;;;;;;;;;;;;-146.32;100.00;63746.28;4165111;28;19971;-87
2024/02/27 16:29:43;;;;;;;;;;;;;;;-146.32;100.00;63746.28;4148497;28;19976;-88
2024/02/27 16:32:07;;;;;;;;;;;;;;;-146.32;100.00;63746.28;4161013;28;19982;-88
2024/02/27 16:34:28;;;;;;;;;;;;;;;-146.32;100.00;63746.28;4159465;28;19931;-86
2024/02/27 16:39:32;;;;;;;;;;;;;;;-146.32;100.00;63746.28;4162476;28;19948;-85
2024/02/27 16:41:53;;;;;;;;;;;;;;;-146.32;100.00;63746.28;4169541;28;19936;-87
2024/02/27 16:44:14;;;;;;;;;;;;;;;-146.32;100.00;63746.28;4158836;28;20358;-89
2024/02/27 16:46:37;;;;;;;;;;;;;;;-146.32;100.00;63746.28;4150402;28;20359;-88
2024/02/27 16:48:59;;;;;;;;;;;;;;;-146.32;100.00;63746.28;4162583;28;19932;-87
2024/02/27 16:51:29;;;;;;;;;;;;;;;-146.32;100.00;63746.28;4158771;28;20005;-88
2024/02/27 16:54:15;;;;;;;;;;;;;;;-146.32;100.00;63746.28;4157289;28;20063;-86
2024/02/27 16:56:37;;;;;;;;;;;;;;;-146.32;100.00;63746.28;4134502;28;20247;-92
2024/02/27 16:58:59;;;;;;;;;;;;;;;-146.32;100.00;63746.28;4142733;28;19932;-93
2024/02/27 17:01:20;;;;;;;;;;;;;;;-146.32;100.00;63746.28;4146518;28;20430;-92
2024/02/27 17:03:43;;;;;;;;;;;;;;;-146.32;100.00;63746.28;4135016;28;19957;-92
2024/02/27 17:06:13;;;;;;;;;;;;;;;-146.32;100.00;63746.28;4146212;28;20062;-91
2024/02/27 17:08:47;;;;;;;;;;;;;;;-146.32;100.00;63746.28;4165981;28;19931;-91
2024/02/27 17:11:35;;;;;;;;;;;;;;;-146.32;100.00;63746.28;4160358;28;20405;-91
2024/02/27 17:14:18;;;;;;;;;;;;;;;-146.32;100.00;63746.28;4158036;28;20016;-91
2024/02/27 17:19:46;;;;;;;;;;;;;;;-146.32;100.00;63746.28;4146726;28;20394;-92
2024/02/27 17:22:17;;;;;;;;;;;;;;;-146.32;100.00;63746.28;4160794;28;19932;-92
2024/02/27 17:28:20;;;;;;;;;;;;;;;-146.32;100.00;63746.28;4163572;28;19971;-91
2024/02/27 17:30:52;;;;;;;;;;;;;;;-146.32;100.00;63746.28;4159517;28;21297;-91
2024/02/27 17:33:47;;;;;;;;;;;;;;;-146.32;100.00;63746.28;4166562;28;20025;-91
2024/02/27 17:36:44;;;;;;;;;;;;;;;-146.32;100.00;63746.28;4144137;28;19939;-91
2024/02/27 17:39:31;;;;;;;;;;;;;;;-146.32;100.00;63746.28;4162744;28;19932;-92
2024/02/27 17:42:24;;;;;;;;;;;;;;;;;;;;;
2024/02/27 17:47:56;;;;;;;;;;;;;;;-146.32;100.00;63746.28;4144267;28;19975;-92
2024/02/27 17:50:17;;;;;;;;;;;;;;;-146.32;100.00;63746.28;4158990;28;19932;-91
2024/02/27 17:52:43;;;;;;;;;;;;;;;-146.32;100.00;63746.28;4152884;28;19972;-92
2024/02/27 17:55:14;;;;;;;;;;;;;;;-146.32;100.00;63746.28;4164832;28;19933;-89
2024/02/27 17:57:45;;;;;;;;;;;;;;;-146.32;100.00;63746.28;4163262;28;19979;-88
2024/02/27 18:00:34;;;;;;;;;;;;;;;-146.32;100.00;63746.28;4145263;28;19967;-88
2024/02/27 18:03:34;;;;;;;;;;;;;;;-146.32;100.00;63746.28;4158194;28;19975;-86
2024/02/27 18:09:18;;;;;;;;;;;;;;;-146.32;100.00;63746.28;4173562;28;19932;-87
2024/02/27 18:15:05;;;;;;;;;;;;;;;;;;;;;
2024/02/27 18:17:30;;;;;;;;;;;;;;;-146.32;100.00;63746.28;4151980;28;19936;-89
2024/02/27 18:19:56;;;;;;;;;;;;;;;-146.32;100.00;63746.28;4146400;28;19948;-87
2024/02/27 18:22:17;;;;;;;;;;;;;;;-146.32;100.00;63746.28;4151275;28;20085;-86
2024/02/27 18:24:38;;;;;;;;;;;;;;;-146.32;100.00;63746.28;4167486;28;19931;-87
2024/02/27 18:27:02;;;;;;;;;;;;;;;-146.32;100.00;63746.28;4162757;28;20336;-87
2024/02/27 18:30:05;;;;;;;;;;;;;;;-146.32;100.00;63746.28;4162420;28;20356;-87
2024/02/27 18:32:37;;;;;;;;;;;;;;;-146.32;100.00;63746.28;4157867;28;19960;-87
2024/02/27 18:35:17;;;;;;;;;;;;;;;;;;;;;
2024/02/27 18:48:17;;;;;;;;;;;;;;;;;;;;;
2024/02/27 19:00:32;;;;;;;;;;;;;;;-146.32;100.00;63746.28;4131284;28;20076;-93
2024/02/27 19:03:21;;;;;;;;;;;;;;;-146.32;100.00;63746.28;4093254;28;19948;-88
2024/02/27 19:05:46;;;;;;;;;;;;;;;-146.32;100.00;63746.28;4109740;28;20571;-86
2024/02/27 19:08:18;;;;;;;;;;;;;;;-146.32;100.00;63746.28;4113904;28;19972;-88
2024/02/27 19:10:39;;;;;;;;;;;;;;;-146.32;100.00;63746.28;4127426;28;19933;-87
2024/02/27 19:13:06;;;;;;;;;;;;;;;-146.32;100.00;63746.28;4159678;28;20435;-85
2024/02/27 19:15:38;;;;;;;;;;;;;;;-146.32;100.00;63746.28;4161084;28;19963;-85
2024/02/27 19:18:06;;;;;;;;;;;;;;;-146.32;100.00;63746.28;4162692;28;20012;-86
2024/02/27 19:20:29;;;;;;;;;;;;;;;-146.32;100.00;63746.28;4151175;28;20009;-87
2024/02/27 19:22:57;;;;;;;;;;;;;;;-146.32;100.00;63746.28;4168025;28;19987;-87
2024/02/27 19:25:19;;;;;;;;;;;;;;;-146.32;100.00;63746.28;4146464;28;19936;-86
2024/02/27 19:27:46;;;;;;;;;;;;;;;-146.32;100.00;63746.28;4153759;28;20013;-87
2024/02/27 19:30:12;;;;;;;;;;;;;;;-146.32;100.00;63746.28;4142337;28;19938;-87
2024/02/27 19:32:33;;;;;;;;;;;;;;;-146.32;100.00;63746.28;4161450;28;20071;-87
2024/02/27 19:34:57;;;;;;;;;;;;;;;-146.32;100.00;63746.28;4152934;28;20280;-87
2024/02/27 19:37:48;;;;;;;;;;;;;;;-146.32;100.00;63746.28;4157212;28;19933;-84
2024/02/27 19:40:10;;;;;;;;;;;;;;;-146.32;100.00;63746.28;4142917;28;20845;-88
2024/02/27 19:42:37;;;;;;;;;;;;;;;-146.32;100.00;63746.28;4151959;28;20163;-91
2024/02/27 19:51:21;;;;;;;;;;;;;;;-146.32;100.00;63746.28;4089294;28;19929;-84
2024/02/27 19:54:09;;;;;;;;;;;;;;;-146.32;100.00;63746.28;4098550;28;19934;-83
2024/02/27 19:56:34;;;;;;;;;;;;;;;-146.32;100.00;63746.28;4094223;29;19989;-85
2024/02/27 19:58:59;;;;;;;;;;;;;;;-146.32;100.00;63746.28;4088037;29;20026;-88
2024/02/27 20:01:23;;;;;;;;;;;;;;;-146.32;100.00;63746.28;4093799;29;20428;-87
2024/02/27 20:03:54;;;;;;;;;;;;;;;-146.32;100.00;63746.28;4139089;28;19960;-92
2024/02/27 20:06:21;;;;;;;;;;;;;;;-146.32;100.00;63746.28;4132517;28;20426;-88
2024/02/27 20:08:56;;;;;;;;;;;;;;;-146.32;100.00;63746.28;4128661;28;19949;-87
2024/02/27 20:11:21;;;;;;;;;;;;;;;-146.32;100.00;63746.28;4130438;28;19973;-86
2024/02/27 20:13:46;;;;;;;;;;;;;;;-146.32;100.00;63746.28;4128101;28;19933;-90
2024/02/27 20:19:12;;;;;;;;;;;;;;;-146.32;100.00;63746.28;4144986;28;20447;-92
2024/02/27 20:21:33;;;;;;;;;;;;;;;-146.32;100.00;63746.28;4144068;28;19975;-92